sensor_id;sensor_type;location;lat;lon;timestamp;temperature;humidity
37518;DHT22;23366;52.498;13.446;2022-11-15T00:01:51;6.40;99.90
37518;DHT22;23366;52.498;13.446;2022-11-15T00:04:18;6.40;99.90
37518;DHT22;23366;52.498;13.446;2022-11-15T00:06:43;6.40;99.90
37518;DHT22;23366;52.498;13.446;2022-11-15T00:09:09;6.40;99.90
37518;DHT22;23366;52.498;13.446;2022-11-15T00:11:34;6.30;99.90
37518;DHT22;23366;52.498;13.446;2022-11-15T00:14:00;6.30;99.90
37518;DHT22;23366;52.498;13.446;2022-11-15T00:16:27;6.30;99.90
37518;DHT22;23366;52.498;13.446;2022-11-15T00:18:53;6.30;99.90
37518;DHT22;23366;52.498;13.446;2022-11-15T00:21:19;6.20;99.90
37518;DHT22;23366;52.498;13.446;2022-11-15T00:23:44;6.20;99.90
37518;DHT22;23366;52.498;13.446;2022-11-15T00:26:14;6.30;99.90
37518;DHT22;23366;52.498;13.446;2022-11-15T00:28:40;6.20;99.90
37518;DHT22;23366;52.498;13.446;2022-11-15T00:31:09;6.20;99.90
37518;DHT22;23366;52.498;13.446;2022-11-15T00:33:34;6.20;99.90
37518;DHT22;23366;52.498;13.446;2022-11-15T00:36:05;6.20;99.90
37518;DHT22;23366;52.498;13.446;2022-11-15T00:38:35;6.20;99.90
37518;DHT22;23366;52.498;13.446;2022-11-15T00:41:02;6.20;99.90
37518;DHT22;23366;52.498;13.446;2022-11-15T00:43:28;6.10;99.90
37518;DHT22;23366;52.498;13.446;2022-11-15T00:45:53;6.10;99.90
37518;DHT22;23366;52.498;13.446;2022-11-15T00:48:19;6.10;99.90
37518;DHT22;23366;52.498;13.446;2022-11-15T00:50:46;6.10;99.90
37518;DHT22;23366;52.498;13.446;2022-11-15T00:53:12;6.10;99.90
37518;DHT22;23366;52.498;13.446;2022-11-15T00:55:38;6.00;99.90
37518;DHT22;23366;52.498;13.446;2022-11-15T00:58:03;6.00;99.90
37518;DHT22;23366;52.498;13.446;2022-11-15T01:00:29;6.00;99.90
37518;DHT22;23366;52.498;13.446;2022-11-15T01:02:54;5.90;99.90
37518;DHT22;23366;52.498;13.446;2022-11-15T01:05:21;6.00;99.90
37518;DHT22;23366;52.498;13.446;2022-11-15T01:07:46;5.90;99.90
37518;DHT22;23366;52.498;13.446;2022-11-15T01:10:18;5.90;99.90
37518;DHT22;23366;52.498;13.446;2022-11-15T01:12:51;5.90;99.90
37518;DHT22;23366;52.498;13.446;2022-11-15T01:15:18;5.90;99.90
37518;DHT22;23366;52.498;13.446;2022-11-15T01:17:45;5.90;99.90
37518;DHT22;23366;52.498;13.446;2022-11-15T01:20:11;5.90;99.90
37518;DHT22;23366;52.498;13.446;2022-11-15T01:22:38;5.90;99.90
37518;DHT22;23366;52.498;13.446;2022-11-15T01:25:03;5.90;99.90
37518;DHT22;23366;52.498;13.446;2022-11-15T01:27:29;5.90;99.90
37518;DHT22;23366;52.498;13.446;2022-11-15T01:29:54;5.90;99.90
37518;DHT22;23366;52.498;13.446;2022-11-15T01:32:20;5.90;99.90
37518;DHT22;23366;52.498;13.446;2022-11-15T01:34:45;5.90;99.90
37518;DHT22;23366;52.498;13.446;2022-11-15T01:37:11;5.80;99.90
37518;DHT22;23366;52.498;13.446;2022-11-15T01:39:36;5.80;99.90
37518;DHT22;23366;52.498;13.446;2022-11-15T01:42:02;5.90;99.90
37518;DHT22;23366;52.498;13.446;2022-11-15T01:47:02;5.80;99.90
37518;DHT22;23366;52.498;13.446;2022-11-15T01:49:30;5.80;99.90
37518;DHT22;23366;52.498;13.446;2022-11-15T01:51:58;5.80;99.90
37518;DHT22;23366;52.498;13.446;2022-11-15T01:54:24;5.80;99.90
37518;DHT22;23366;52.498;13.446;2022-11-15T01:57:04;5.80;99.90
37518;DHT22;23366;52.498;13.446;2022-11-15T01:59:31;5.80;99.90
37518;DHT22;23366;52.498;13.446;2022-11-15T02:01:57;5.80;99.90
37518;DHT22;23366;52.498;13.446;2022-11-15T02:04:28;5.80;99.90
37518;DHT22;23366;52.498;13.446;2022-11-15T02:06:54;5.70;99.90
37518;DHT22;23366;52.498;13.446;2022-11-15T02:09:19;5.80;99.90
37518;DHT22;23366;52.498;13.446;2022-11-15T02:11:46;5.80;99.90
37518;DHT22;23366;52.498;13.446;2022-11-15T02:14:14;5.80;99.90
37518;DHT22;23366;52.498;13.446;2022-11-15T02:17:00;5.80;99.90
37518;DHT22;23366;52.498;13.446;2022-11-15T02:27:53;5.80;99.90
37518;DHT22;23366;52.498;13.446;2022-11-15T02:36:01;5.80;99.90
37518;DHT22;23366;52.498;13.446;2022-11-15T02:38:37;5.80;99.90
37518;DHT22;23366;52.498;13.446;2022-11-15T02:41:37;5.80;99.90
37518;DHT22;23366;52.498;13.446;2022-11-15T02:44:10;5.80;99.90
37518;DHT22;23366;52.498;13.446;2022-11-15T02:46:54;5.70;99.90
37518;DHT22;23366;52.498;13.446;2022-11-15T02:49:51;5.70;99.90
37518;DHT22;23366;52.498;13.446;2022-11-15T02:52:22;5.70;99.90
37518;DHT22;23366;52.498;13.446;2022-11-15T02:54:59;5.70;99.90
37518;DHT22;23366;52.498;13.446;2022-11-15T03:05:46;5.70;99.90
37518;DHT22;23366;52.498;13.446;2022-11-15T03:08:22;5.70;99.90
37518;DHT22;23366;52.498;13.446;2022-11-15T03:13:33;5.70;99.90
37518;DHT22;23366;52.498;13.446;2022-11-15T03:16:21;5.70;99.90
37518;DHT22;23366;52.498;13.446;2022-11-15T03:18:56;5.70;99.90
37518;DHT22;23366;52.498;13.446;2022-11-15T03:21:24;5.70;99.90
37518;DHT22;23366;52.498;13.446;2022-11-15T03:23:52;5.70;99.90
37518;DHT22;23366;52.498;13.446;2022-11-15T03:26:20;5.70;99.90
37518;DHT22;23366;52.498;13.446;2022-11-15T03:29:19;5.70;99.90
37518;DHT22;23366;52.498;13.446;2022-11-15T03:31:52;5.60;99.90
37518;DHT22;23366;52.498;13.446;2022-11-15T03:34:26;5.60;99.90
37518;DHT22;23366;52.498;13.446;2022-11-15T03:36:53;5.60;99.90
37518;DHT22;23366;52.498;13.446;2022-11-15T03:39:19;5.60;99.90
37518;DHT22;23366;52.498;13.446;2022-11-15T03:47:22;5.60;99.90
37518;DHT22;23366;52.498;13.446;2022-11-15T03:49:52;5.70;99.90
37518;DHT22;23366;52.498;13.446;2022-11-15T03:52:20;5.70;99.90
37518;DHT22;23366;52.498;13.446;2022-11-15T03:54:54;5.70;99.90
37518;DHT22;23366;52.498;13.446;2022-11-15T03:57:20;5.60;99.90
37518;DHT22;23366;52.498;13.446;2022-11-15T03:59:46;5.60;99.90
37518;DHT22;23366;52.498;13.446;2022-11-15T04:02:11;5.60;99.90
37518;DHT22;23366;52.498;13.446;2022-11-15T04:04:37;5.60;99.90
37518;DHT22;23366;52.498;13.446;2022-11-15T04:07:02;5.70;99.90
37518;DHT22;23366;52.498;13.446;2022-11-15T04:09:28;5.70;99.90
37518;DHT22;23366;52.498;13.446;2022-11-15T04:11:53;5.60;99.90
37518;DHT22;23366;52.498;13.446;2022-11-15T04:14:19;5.60;99.90
37518;DHT22;23366;52.498;13.446;2022-11-15T04:16:44;5.60;99.90
37518;DHT22;23366;52.498;13.446;2022-11-15T04:19:10;5.60;99.90
37518;DHT22;23366;52.498;13.446;2022-11-15T04:21:54;5.60;99.90
37518;DHT22;23366;52.498;13.446;2022-11-15T04:24:38;5.60;99.90
37518;DHT22;23366;52.498;13.446;2022-11-15T04:27:04;5.60;99.90
37518;DHT22;23366;52.498;13.446;2022-11-15T04:29:29;5.50;99.90
37518;DHT22;23366;52.498;13.446;2022-11-15T04:32:05;5.60;99.90
37518;DHT22;23366;52.498;13.446;2022-11-15T04:34:31;5.60;99.90
37518;DHT22;23366;52.498;13.446;2022-11-15T04:36:58;5.60;99.90
37518;DHT22;23366;52.498;13.446;2022-11-15T04:39:42;5.60;99.90
37518;DHT22;23366;52.498;13.446;2022-11-15T04:42:08;5.60;99.90
37518;DHT22;23366;52.498;13.446;2022-11-15T04:44:34;5.60;99.90
37518;DHT22;23366;52.498;13.446;2022-11-15T04:46:59;5.60;99.90
37518;DHT22;23366;52.498;13.446;2022-11-15T04:49:25;5.60;99.90
37518;DHT22;23366;52.498;13.446;2022-11-15T04:51:52;5.60;99.90
37518;DHT22;23366;52.498;13.446;2022-11-15T04:54:19;5.60;99.90
37518;DHT22;23366;52.498;13.446;2022-11-15T04:57:01;5.70;99.90
37518;DHT22;23366;52.498;13.446;2022-11-15T04:59:27;5.60;99.90
37518;DHT22;23366;52.498;13.446;2022-11-15T05:01:56;5.60;99.90
37518;DHT22;23366;52.498;13.446;2022-11-15T05:04:23;5.60;99.90
37518;DHT22;23366;52.498;13.446;2022-11-15T05:06:51;5.60;99.90
37518;DHT22;23366;52.498;13.446;2022-11-15T05:09:17;5.50;99.90
37518;DHT22;23366;52.498;13.446;2022-11-15T05:11:44;5.50;99.90
37518;DHT22;23366;52.498;13.446;2022-11-15T05:14:09;5.50;99.90
37518;DHT22;23366;52.498;13.446;2022-11-15T05:16:35;5.50;99.90
37518;DHT22;23366;52.498;13.446;2022-11-15T05:19:01;5.50;99.90
37518;DHT22;23366;52.498;13.446;2022-11-15T05:21:27;5.50;99.90
37518;DHT22;23366;52.498;13.446;2022-11-15T05:24:05;5.50;99.90
37518;DHT22;23366;52.498;13.446;2022-11-15T05:26:30;5.50;99.90
37518;DHT22;23366;52.498;13.446;2022-11-15T05:28:57;5.50;99.90
37518;DHT22;23366;52.498;13.446;2022-11-15T05:31:23;5.50;99.90
37518;DHT22;23366;52.498;13.446;2022-11-15T05:33:50;5.60;99.90
37518;DHT22;23366;52.498;13.446;2022-11-15T05:36:25;5.50;99.90
37518;DHT22;23366;52.498;13.446;2022-11-15T05:38:53;5.50;99.90
37518;DHT22;23366;52.498;13.446;2022-11-15T05:41:25;5.50;99.90
37518;DHT22;23366;52.498;13.446;2022-11-15T05:43:52;5.50;99.90
37518;DHT22;23366;52.498;13.446;2022-11-15T05:46:19;5.50;99.90
37518;DHT22;23366;52.498;13.446;2022-11-15T05:48:48;5.50;99.90
37518;DHT22;23366;52.498;13.446;2022-11-15T05:51:14;5.50;99.90
37518;DHT22;23366;52.498;13.446;2022-11-15T05:53:41;5.50;99.90
37518;DHT22;23366;52.498;13.446;2022-11-15T05:56:09;5.60;99.90
37518;DHT22;23366;52.498;13.446;2022-11-15T05:58:35;5.50;99.90
37518;DHT22;23366;52.498;13.446;2022-11-15T06:01:01;5.60;99.90
37518;DHT22;23366;52.498;13.446;2022-11-15T06:03:27;5.60;99.90
37518;DHT22;23366;52.498;13.446;2022-11-15T06:05:52;5.60;99.90
37518;DHT22;23366;52.498;13.446;2022-11-15T06:08:18;5.60;99.90
37518;DHT22;23366;52.498;13.446;2022-11-15T06:10:43;5.60;99.90
37518;DHT22;23366;52.498;13.446;2022-11-15T06:13:09;5.50;99.90
37518;DHT22;23366;52.498;13.446;2022-11-15T06:15:34;5.50;99.90
37518;DHT22;23366;52.498;13.446;2022-11-15T06:18:00;5.60;99.90
37518;DHT22;23366;52.498;13.446;2022-11-15T06:20:27;5.50;99.90
37518;DHT22;23366;52.498;13.446;2022-11-15T06:23:01;5.60;99.90
37518;DHT22;23366;52.498;13.446;2022-11-15T06:25:28;5.60;99.90
37518;DHT22;23366;52.498;13.446;2022-11-15T06:27:54;5.60;99.90
37518;DHT22;23366;52.498;13.446;2022-11-15T06:30:22;5.60;99.90
37518;DHT22;23366;52.498;13.446;2022-11-15T06:32:47;5.60;99.90
37518;DHT22;23366;52.498;13.446;2022-11-15T06:35:13;5.60;99.90
37518;DHT22;23366;52.498;13.446;2022-11-15T06:37:39;5.60;99.90
37518;DHT22;23366;52.498;13.446;2022-11-15T06:40:06;5.60;99.90
37518;DHT22;23366;52.498;13.446;2022-11-15T06:42:32;5.70;99.90
37518;DHT22;23366;52.498;13.446;2022-11-15T06:44:58;5.60;99.90
37518;DHT22;23366;52.498;13.446;2022-11-15T06:47:23;5.70;99.90
37518;DHT22;23366;52.498;13.446;2022-11-15T06:49:49;5.70;99.90
37518;DHT22;23366;52.498;13.446;2022-11-15T06:52:14;5.80;99.90
37518;DHT22;23366;52.498;13.446;2022-11-15T06:54:40;5.80;99.90
37518;DHT22;23366;52.498;13.446;2022-11-15T06:57:06;5.80;99.90
37518;DHT22;23366;52.498;13.446;2022-11-15T06:59:31;5.80;99.90
37518;DHT22;23366;52.498;13.446;2022-11-15T07:01:56;5.90;99.90
37518;DHT22;23366;52.498;13.446;2022-11-15T07:04:22;5.90;99.90
37518;DHT22;23366;52.498;13.446;2022-11-15T07:06:48;6.00;99.90
37518;DHT22;23366;52.498;13.446;2022-11-15T07:09:14;6.10;99.90
37518;DHT22;23366;52.498;13.446;2022-11-15T07:11:40;6.20;99.90
37518;DHT22;23366;52.498;13.446;2022-11-15T07:14:05;6.30;99.90
37518;DHT22;23366;52.498;13.446;2022-11-15T07:16:31;6.40;99.90
37518;DHT22;23366;52.498;13.446;2022-11-15T07:18:56;6.60;99.90
37518;DHT22;23366;52.498;13.446;2022-11-15T07:21:22;6.80;99.90
37518;DHT22;23366;52.498;13.446;2022-11-15T07:23:48;6.90;99.90
37518;DHT22;23366;52.498;13.446;2022-11-15T07:26:13;7.10;99.90
37518;DHT22;23366;52.498;13.446;2022-11-15T07:28:39;7.30;99.90
37518;DHT22;23366;52.498;13.446;2022-11-15T07:31:06;7.50;99.90
37518;DHT22;23366;52.498;13.446;2022-11-15T07:33:32;7.90;99.90
37518;DHT22;23366;52.498;13.446;2022-11-15T07:36:02;8.20;99.90
37518;DHT22;23366;52.498;13.446;2022-11-15T07:38:29;8.80;99.90
37518;DHT22;23366;52.498;13.446;2022-11-15T07:40:59;9.60;99.90
37518;DHT22;23366;52.498;13.446;2022-11-15T07:43:25;10.30;99.90
37518;DHT22;23366;52.498;13.446;2022-11-15T07:45:53;11.00;99.90
37518;DHT22;23366;52.498;13.446;2022-11-15T07:48:19;11.50;99.90
37518;DHT22;23366;52.498;13.446;2022-11-15T07:50:45;11.60;99.90
37518;DHT22;23366;52.498;13.446;2022-11-15T07:53:10;11.50;99.90
37518;DHT22;23366;52.498;13.446;2022-11-15T07:55:36;11.20;99.90
37518;DHT22;23366;52.498;13.446;2022-11-15T07:58:02;10.90;99.90
37518;DHT22;23366;52.498;13.446;2022-11-15T08:00:28;10.60;99.90
37518;DHT22;23366;52.498;13.446;2022-11-15T08:03:11;10.20;99.90
37518;DHT22;23366;52.498;13.446;2022-11-15T08:05:37;10.10;99.90
37518;DHT22;23366;52.498;13.446;2022-11-15T08:08:03;9.80;99.90
37518;DHT22;23366;52.498;13.446;2022-11-15T08:10:29;9.70;99.90
37518;DHT22;23366;52.498;13.446;2022-11-15T08:13:05;9.40;99.90
37518;DHT22;23366;52.498;13.446;2022-11-15T08:15:32;9.30;99.90
37518;DHT22;23366;52.498;13.446;2022-11-15T08:18:03;9.30;99.90
37518;DHT22;23366;52.498;13.446;2022-11-15T08:20:30;9.30;99.90
37518;DHT22;23366;52.498;13.446;2022-11-15T08:22:59;9.30;99.90
37518;DHT22;23366;52.498;13.446;2022-11-15T08:25:27;9.40;99.90
37518;DHT22;23366;52.498;13.446;2022-11-15T08:27:54;9.40;99.90
37518;DHT22;23366;52.498;13.446;2022-11-15T08:30:20;9.50;99.90
37518;DHT22;23366;52.498;13.446;2022-11-15T08:32:45;9.50;99.90
37518;DHT22;23366;52.498;13.446;2022-11-15T08:35:11;9.50;99.90
37518;DHT22;23366;52.498;13.446;2022-11-15T08:37:36;9.50;99.90
37518;DHT22;23366;52.498;13.446;2022-11-15T08:40:03;9.40;99.90
37518;DHT22;23366;52.498;13.446;2022-11-15T08:42:29;9.30;99.90
37518;DHT22;23366;52.498;13.446;2022-11-15T08:44:54;9.30;99.90
37518;DHT22;23366;52.498;13.446;2022-11-15T08:47:19;9.30;99.90
37518;DHT22;23366;52.498;13.446;2022-11-15T08:49:45;9.20;99.90
37518;DHT22;23366;52.498;13.446;2022-11-15T08:52:10;9.30;99.90
37518;DHT22;23366;52.498;13.446;2022-11-15T08:54:36;9.30;99.90
37518;DHT22;23366;52.498;13.446;2022-11-15T08:57:01;9.30;99.90
37518;DHT22;23366;52.498;13.446;2022-11-15T08:59:27;9.30;99.90
37518;DHT22;23366;52.498;13.446;2022-11-15T09:01:52;9.30;99.90
37518;DHT22;23366;52.498;13.446;2022-11-15T09:04:18;9.30;99.90
37518;DHT22;23366;52.498;13.446;2022-11-15T09:06:43;9.40;99.90
37518;DHT22;23366;52.498;13.446;2022-11-15T09:09:09;9.50;99.90
37518;DHT22;23366;52.498;13.446;2022-11-15T09:11:34;9.50;99.90
37518;DHT22;23366;52.498;13.446;2022-11-15T09:14:00;9.50;99.90
37518;DHT22;23366;52.498;13.446;2022-11-15T09:16:25;9.60;99.90
37518;DHT22;23366;52.498;13.446;2022-11-15T09:18:52;9.70;99.90
37518;DHT22;23366;52.498;13.446;2022-11-15T09:21:18;9.80;99.90
37518;DHT22;23366;52.498;13.446;2022-11-15T09:23:43;9.80;99.90
37518;DHT22;23366;52.498;13.446;2022-11-15T09:26:09;9.80;99.90
37518;DHT22;23366;52.498;13.446;2022-11-15T09:28:36;9.80;99.90
37518;DHT22;23366;52.498;13.446;2022-11-15T09:31:04;9.90;99.90
37518;DHT22;23366;52.498;13.446;2022-11-15T09:33:30;9.90;99.90
37518;DHT22;23366;52.498;13.446;2022-11-15T09:36:00;9.90;99.90
37518;DHT22;23366;52.498;13.446;2022-11-15T09:38:26;10.00;99.90
37518;DHT22;23366;52.498;13.446;2022-11-15T09:41:07;10.00;99.90
37518;DHT22;23366;52.498;13.446;2022-11-15T09:46:31;10.20;99.90
37518;DHT22;23366;52.498;13.446;2022-11-15T09:49:03;10.30;99.90
37518;DHT22;23366;52.498;13.446;2022-11-15T09:53:58;10.40;99.90
37518;DHT22;23366;52.498;13.446;2022-11-15T09:56:28;10.40;99.90
37518;DHT22;23366;52.498;13.446;2022-11-15T10:01:49;10.60;99.90
37518;DHT22;23366;52.498;13.446;2022-11-15T10:04:20;10.60;99.90
37518;DHT22;23366;52.498;13.446;2022-11-15T10:09:45;10.80;99.90
37518;DHT22;23366;52.498;13.446;2022-11-15T10:12:13;10.70;99.90
37518;DHT22;23366;52.498;13.446;2022-11-15T10:14:39;10.80;99.90
37518;DHT22;23366;52.498;13.446;2022-11-15T10:23:02;10.80;99.90
37518;DHT22;23366;52.498;13.446;2022-11-15T10:25:32;10.80;99.90
37518;DHT22;23366;52.498;13.446;2022-11-15T10:28:09;10.90;99.90
37518;DHT22;23366;52.498;13.446;2022-11-15T10:30:43;10.90;99.90
37518;DHT22;23366;52.498;13.446;2022-11-15T10:35:44;11.00;99.90
37518;DHT22;23366;52.498;13.446;2022-11-15T10:38:11;11.00;99.90
37518;DHT22;23366;52.498;13.446;2022-11-15T10:40:39;11.10;99.90
37518;DHT22;23366;52.498;13.446;2022-11-15T10:43:15;11.10;99.90
37518;DHT22;23366;52.498;13.446;2022-11-15T10:45:40;11.10;99.90
37518;DHT22;23366;52.498;13.446;2022-11-15T10:50:39;11.20;99.90
37518;DHT22;23366;52.498;13.446;2022-11-15T10:53:15;11.10;99.90
37518;DHT22;23366;52.498;13.446;2022-11-15T10:55:47;11.20;99.90
37518;DHT22;23366;52.498;13.446;2022-11-15T11:01:13;11.20;99.90
37518;DHT22;23366;52.498;13.446;2022-11-15T11:03:40;11.20;99.90
37518;DHT22;23366;52.498;13.446;2022-11-15T11:08:36;11.30;99.90
37518;DHT22;23366;52.498;13.446;2022-11-15T11:11:03;11.20;99.90
37518;DHT22;23366;52.498;13.446;2022-11-15T11:13:33;11.30;99.90
37518;DHT22;23366;52.498;13.446;2022-11-15T11:16:22;11.30;99.90
37518;DHT22;23366;52.498;13.446;2022-11-15T11:22:00;11.30;99.90
37518;DHT22;23366;52.498;13.446;2022-11-15T11:24:42;11.30;99.90
37518;DHT22;23366;52.498;13.446;2022-11-15T11:27:32;11.30;99.90
37518;DHT22;23366;52.498;13.446;2022-11-15T11:30:06;11.30;99.90
37518;DHT22;23366;52.498;13.446;2022-11-15T11:35:27;11.50;99.90
37518;DHT22;23366;52.498;13.446;2022-11-15T11:38:11;11.50;99.90
37518;DHT22;23366;52.498;13.446;2022-11-15T11:40:44;11.50;99.90
37518;DHT22;23366;52.498;13.446;2022-11-15T11:46:14;11.60;99.90
37518;DHT22;23366;52.498;13.446;2022-11-15T11:48:50;11.60;99.90
37518;DHT22;23366;52.498;13.446;2022-11-15T11:51:24;11.60;99.90
37518;DHT22;23366;52.498;13.446;2022-11-15T11:54:05;11.70;99.90
37518;DHT22;23366;52.498;13.446;2022-11-15T11:56:37;11.70;99.90
37518;DHT22;23366;52.498;13.446;2022-11-15T11:59:41;11.80;99.90
37518;DHT22;23366;52.498;13.446;2022-11-15T12:02:36;11.80;99.90
37518;DHT22;23366;52.498;13.446;2022-11-15T12:05:22;11.90;99.90
37518;DHT22;23366;52.498;13.446;2022-11-15T12:07:54;11.90;99.90
37518;DHT22;23366;52.498;13.446;2022-11-15T12:10:29;12.00;99.90
37518;DHT22;23366;52.498;13.446;2022-11-15T12:13:14;12.00;99.90
37518;DHT22;23366;52.498;13.446;2022-11-15T12:18:32;12.00;99.90
37518;DHT22;23366;52.498;13.446;2022-11-15T12:21:03;12.00;99.90
37518;DHT22;23366;52.498;13.446;2022-11-15T12:23:46;12.00;99.90
37518;DHT22;23366;52.498;13.446;2022-11-15T12:26:21;12.00;99.90
37518;DHT22;23366;52.498;13.446;2022-11-15T12:31:31;12.00;99.90
37518;DHT22;23366;52.498;13.446;2022-11-15T12:36:45;12.00;99.90
37518;DHT22;23366;52.498;13.446;2022-11-15T12:39:12;12.10;99.90
37518;DHT22;23366;52.498;13.446;2022-11-15T12:41:43;12.00;99.90
37518;DHT22;23366;52.498;13.446;2022-11-15T12:49:43;12.10;99.90
37518;DHT22;23366;52.498;13.446;2022-11-15T12:52:09;12.10;99.90
37518;DHT22;23366;52.498;13.446;2022-11-15T13:02:34;12.20;99.90
37518;DHT22;23366;52.498;13.446;2022-11-15T13:30:50;12.20;99.90
37518;DHT22;23366;52.498;13.446;2022-11-15T13:33:21;12.20;99.90
37518;DHT22;23366;52.498;13.446;2022-11-15T13:36:06;12.20;99.90
37518;DHT22;23366;52.498;13.446;2022-11-15T13:38:36;12.20;99.90
37518;DHT22;23366;52.498;13.446;2022-11-15T13:41:17;12.20;99.90
37518;DHT22;23366;52.498;13.446;2022-11-15T13:43:43;12.20;99.90
37518;DHT22;23366;52.498;13.446;2022-11-15T13:46:25;12.20;99.90
37518;DHT22;23366;52.498;13.446;2022-11-15T13:48:58;12.20;99.90
37518;DHT22;23366;52.498;13.446;2022-11-15T13:51:40;12.20;99.90
37518;DHT22;23366;52.498;13.446;2022-11-15T13:56:55;12.20;99.90
37518;DHT22;23366;52.498;13.446;2022-11-15T13:59:29;12.20;99.90
37518;DHT22;23366;52.498;13.446;2022-11-15T14:01:58;12.20;99.90
37518;DHT22;23366;52.498;13.446;2022-11-15T14:04:26;12.20;99.90
37518;DHT22;23366;52.498;13.446;2022-11-15T14:06:57;12.20;99.90
37518;DHT22;23366;52.498;13.446;2022-11-15T14:09:38;12.20;99.90
37518;DHT22;23366;52.498;13.446;2022-11-15T14:12:50;12.20;99.90
37518;DHT22;23366;52.498;13.446;2022-11-15T14:15:26;12.10;99.90
37518;DHT22;23366;52.498;13.446;2022-11-15T14:17:52;12.10;99.90
37518;DHT22;23366;52.498;13.446;2022-11-15T14:23:19;12.00;99.90
37518;DHT22;23366;52.498;13.446;2022-11-15T14:25:57;12.00;99.90
37518;DHT22;23366;52.498;13.446;2022-11-15T14:30:48;12.00;99.90
37518;DHT22;23366;52.498;13.446;2022-11-15T14:33:22;12.00;99.90
37518;DHT22;23366;52.498;13.446;2022-11-15T14:35:50;11.90;99.90
37518;DHT22;23366;52.498;13.446;2022-11-15T14:38:15;11.90;99.90
37518;DHT22;23366;52.498;13.446;2022-11-15T14:40:42;11.90;99.90
37518;DHT22;23366;52.498;13.446;2022-11-15T14:43:10;11.90;99.90
37518;DHT22;23366;52.498;13.446;2022-11-15T14:45:36;11.80;99.90
37518;DHT22;23366;52.498;13.446;2022-11-15T14:48:02;11.90;99.90
37518;DHT22;23366;52.498;13.446;2022-11-15T14:50:27;11.80;99.90
37518;DHT22;23366;52.498;13.446;2022-11-15T14:52:53;11.70;99.90
37518;DHT22;23366;52.498;13.446;2022-11-15T14:55:24;11.70;99.90
37518;DHT22;23366;52.498;13.446;2022-11-15T14:57:50;11.70;99.90
37518;DHT22;23366;52.498;13.446;2022-11-15T15:00:16;11.60;99.90
37518;DHT22;23366;52.498;13.446;2022-11-15T15:02:43;11.60;99.90
37518;DHT22;23366;52.498;13.446;2022-11-15T15:07:40;11.50;99.90
37518;DHT22;23366;52.498;13.446;2022-11-15T15:10:06;11.50;99.90
37518;DHT22;23366;52.498;13.446;2022-11-15T15:12:32;11.40;99.90
37518;DHT22;23366;52.498;13.446;2022-11-15T15:14:58;11.40;99.90
37518;DHT22;23366;52.498;13.446;2022-11-15T15:17:23;11.40;99.90
37518;DHT22;23366;52.498;13.446;2022-11-15T15:19:49;11.30;99.90
37518;DHT22;23366;52.498;13.446;2022-11-15T15:22:16;11.30;99.90
37518;DHT22;23366;52.498;13.446;2022-11-15T15:24:45;11.20;99.90
37518;DHT22;23366;52.498;13.446;2022-11-15T15:27:11;11.20;99.90
37518;DHT22;23366;52.498;13.446;2022-11-15T15:29:37;11.10;99.90
37518;DHT22;23366;52.498;13.446;2022-11-15T15:32:03;11.10;99.90
37518;DHT22;23366;52.498;13.446;2022-11-15T15:34:28;11.10;99.90
37518;DHT22;23366;52.498;13.446;2022-11-15T15:37:21;11.10;99.90
37518;DHT22;23366;52.498;13.446;2022-11-15T15:39:53;11.00;99.90
37518;DHT22;23366;52.498;13.446;2022-11-15T15:42:19;10.90;99.90
37518;DHT22;23366;52.498;13.446;2022-11-15T15:44:46;10.90;99.90
37518;DHT22;23366;52.498;13.446;2022-11-15T15:47:13;10.90;99.90
37518;DHT22;23366;52.498;13.446;2022-11-15T15:49:40;10.90;99.90
37518;DHT22;23366;52.498;13.446;2022-11-15T15:52:05;10.80;99.90
37518;DHT22;23366;52.498;13.446;2022-11-15T15:54:31;10.80;99.90
37518;DHT22;23366;52.498;13.446;2022-11-15T15:56:56;10.80;99.90
37518;DHT22;23366;52.498;13.446;2022-11-15T15:59:22;10.80;99.90
37518;DHT22;23366;52.498;13.446;2022-11-15T16:01:47;10.70;99.90
37518;DHT22;23366;52.498;13.446;2022-11-15T16:04:13;10.70;99.90
37518;DHT22;23366;52.498;13.446;2022-11-15T16:06:39;10.70;99.90
37518;DHT22;23366;52.498;13.446;2022-11-15T16:09:13;10.70;99.90
37518;DHT22;23366;52.498;13.446;2022-11-15T16:11:38;10.70;99.90
37518;DHT22;23366;52.498;13.446;2022-11-15T16:14:04;10.60;99.90
37518;DHT22;23366;52.498;13.446;2022-11-15T16:16:30;10.60;99.90
37518;DHT22;23366;52.498;13.446;2022-11-15T16:18:56;10.60;99.90
37518;DHT22;23366;52.498;13.446;2022-11-15T16:21:21;10.60;99.90
37518;DHT22;23366;52.498;13.446;2022-11-15T16:23:47;10.50;99.90
37518;DHT22;23366;52.498;13.446;2022-11-15T16:26:21;10.50;99.90
37518;DHT22;23366;52.498;13.446;2022-11-15T16:28:47;10.50;99.90
37518;DHT22;23366;52.498;13.446;2022-11-15T16:31:13;10.40;99.90
37518;DHT22;23366;52.498;13.446;2022-11-15T16:33:39;10.40;99.90
37518;DHT22;23366;52.498;13.446;2022-11-15T16:36:11;10.30;99.90
37518;DHT22;23366;52.498;13.446;2022-11-15T16:38:37;10.20;99.90
37518;DHT22;23366;52.498;13.446;2022-11-15T16:41:04;10.20;99.90
37518;DHT22;23366;52.498;13.446;2022-11-15T16:43:29;10.20;99.90
37518;DHT22;23366;52.498;13.446;2022-11-15T16:45:55;10.10;99.90
37518;DHT22;23366;52.498;13.446;2022-11-15T16:48:27;10.10;99.90
37518;DHT22;23366;52.498;13.446;2022-11-15T16:50:59;10.10;99.90
37518;DHT22;23366;52.498;13.446;2022-11-15T16:53:28;10.00;99.90
37518;DHT22;23366;52.498;13.446;2022-11-15T16:55:54;9.90;99.90
37518;DHT22;23366;52.498;13.446;2022-11-15T16:58:20;9.90;99.90
37518;DHT22;23366;52.498;13.446;2022-11-15T17:00:50;9.80;99.90
37518;DHT22;23366;52.498;13.446;2022-11-15T17:03:16;9.70;99.90
37518;DHT22;23366;52.498;13.446;2022-11-15T17:05:41;9.60;99.90
37518;DHT22;23366;52.498;13.446;2022-11-15T17:08:07;9.60;99.90
37518;DHT22;23366;52.498;13.446;2022-11-15T17:10:33;9.50;99.90
37518;DHT22;23366;52.498;13.446;2022-11-15T17:12:58;9.50;99.90
37518;DHT22;23366;52.498;13.446;2022-11-15T17:15:24;9.40;99.90
37518;DHT22;23366;52.498;13.446;2022-11-15T17:17:51;9.40;99.90
37518;DHT22;23366;52.498;13.446;2022-11-15T17:20:18;9.30;99.90
37518;DHT22;23366;52.498;13.446;2022-11-15T17:22:43;9.20;99.90
37518;DHT22;23366;52.498;13.446;2022-11-15T17:25:09;9.10;99.90
37518;DHT22;23366;52.498;13.446;2022-11-15T17:27:35;9.10;99.90
37518;DHT22;23366;52.498;13.446;2022-11-15T17:30:00;9.00;99.90
37518;DHT22;23366;52.498;13.446;2022-11-15T17:32:26;9.00;99.90
37518;DHT22;23366;52.498;13.446;2022-11-15T17:34:51;9.00;99.90
37518;DHT22;23366;52.498;13.446;2022-11-15T17:37:16;8.90;99.90
37518;DHT22;23366;52.498;13.446;2022-11-15T17:39:42;8.90;99.90
37518;DHT22;23366;52.498;13.446;2022-11-15T17:42:07;8.90;99.90
37518;DHT22;23366;52.498;13.446;2022-11-15T17:44:33;8.80;99.90